Time;durP1;ratioP1;P1;durP2;ratioP2;P2;SDS_P1;SDS_P2;PMS_P1;PMS_P2;Temp;Humidity;BMP_temperature;BMP_pressure;BME280_temperature;BME280_humidity;BME280_pressure;Samples;Min_cycle;Max_cycle;Signal;HPM_P1;HPM_P2
2022/10/27 00:01:48;;;;;;;6.17;4.60;;;13.40;99.90;;;;;;4989662;28;20184;-61
2022/10/27 00:04:14;;;;;;;9.83;4.83;;;13.50;99.90;;;;;;4974724;28;20548;-61
2022/10/27 00:06:40;;;;;;;8.77;5.33;;;13.10;99.90;;;;;;4991746;28;20660;-61
2022/10/27 00:09:06;;;;;;;5.28;4.78;;;13.10;99.90;;;;;;5001064;28;20219;-61
2022/10/27 00:11:31;;;;;;;8.80;4.97;;;13.10;99.90;;;;;;4987838;28;20298;-64
2022/10/27 00:13:57;;;;;;;7.90;4.80;;;13.00;99.90;;;;;;4997808;28;20207;-63
2022/10/27 00:16:23;;;;;;;9.87;6.27;;;13.40;99.90;;;;;;4993122;28;20207;-62
2022/10/27 00:18:48;;;;;;;8.30;4.63;;;13.30;99.90;;;;;;4994320;28;20359;-64
2022/10/27 00:21:17;;;;;;;6.97;4.63;;;13.30;99.90;;;;;;4990617;28;20215;-63
2022/10/27 00:23:43;;;;;;;8.38;5.10;;;13.40;99.90;;;;;;4973727;28;20180;-57
2022/10/27 00:26:13;;;;;;;10.27;5.03;;;12.90;99.90;;;;;;5001611;28;20232;-58
2022/10/27 00:28:40;;;;;;;8.68;5.07;;;12.90;99.90;;;;;;4993399;28;20187;-58
2022/10/27 00:31:10;;;;;;;5.40;4.85;;;13.20;99.90;;;;;;4989591;28;20689;-58
2022/10/27 00:33:36;;;;;;;6.95;5.25;;;13.50;99.90;;;;;;4991459;28;20191;-60
2022/10/27 00:36:13;;;;;;;5.23;4.73;;;13.00;99.90;;;;;;4996244;28;20221;-59
2022/10/27 00:38:39;;;;;;;10.43;4.97;;;13.00;99.90;;;;;;4983797;28;20853;-60
2022/10/27 00:41:07;;;;;;;7.00;4.83;;;13.10;99.90;;;;;;4990231;28;20207;-60
2022/10/27 00:43:36;;;;;;;5.10;4.55;;;13.30;99.90;;;;;;4991466;28;21038;-61
2022/10/27 00:46:23;;;;;;;6.70;4.60;;;13.00;99.90;;;;;;4987877;28;20188;-60
2022/10/27 00:48:54;;;;;;;9.00;4.85;;;13.10;99.90;;;;;;4989893;28;20199;-60
2022/10/27 00:51:20;;;;;;;5.50;4.85;;;13.00;99.90;;;;;;4991130;28;20289;-60
2022/10/27 00:53:48;;;;;;;6.72;4.80;;;12.90;99.90;;;;;;4986873;28;20191;-60
2022/10/27 00:56:14;;;;;;;8.82;4.75;;;13.10;99.90;;;;;;4998912;28;20249;-60
2022/10/27 00:58:40;;;;;;;13.20;5.28;;;12.80;99.90;;;;;;5005954;28;20261;-60
2022/10/27 01:01:06;;;;;;;9.53;4.93;;;13.00;99.90;;;;;;5009601;28;20663;-60
2022/10/27 01:03:32;;;;;;;8.80;4.77;;;12.90;99.90;;;;;;5007853;28;20432;-60
2022/10/27 01:05:59;;;;;;;7.13;4.45;;;12.50;99.90;;;;;;4991895;28;20687;-59
2022/10/27 01:08:25;;;;;;;9.23;5.47;;;12.80;99.90;;;;;;4978131;28;20192;-59
2022/10/27 01:10:52;;;;;;;9.65;4.85;;;12.80;99.90;;;;;;4991105;28;20187;-59
2022/10/27 01:13:19;;;;;;;6.13;5.00;;;12.90;99.90;;;;;;5009805;28;20209;-60
2022/10/27 01:15:56;;;;;;;6.70;4.90;;;12.90;99.90;;;;;;5005829;28;20211;-60
2022/10/27 01:18:34;;;;;;;8.45;4.85;;;12.10;99.90;;;;;;4996654;28;20189;-60
2022/10/27 01:21:13;;;;;;;8.15;5.03;;;12.70;99.90;;;;;;4977854;28;20711;-59
2022/10/27 01:23:54;;;;;;;8.13;5.05;;;12.60;99.90;;;;;;4987082;28;20187;-60
2022/10/27 01:26:52;;;;;;;6.82;5.07;;;12.30;99.90;;;;;;4990850;28;20680;-60
2022/10/27 01:29:33;;;;;;;8.65;5.50;;;12.40;99.90;;;;;;4973874;28;20198;-60
2022/10/27 01:32:08;;;;;;;13.52;5.97;;;12.20;99.90;;;;;;4989212;28;20187;-59
2022/10/27 01:35:03;;;;;;;10.05;5.65;;;12.50;99.90;;;;;;5003078;28;20682;-60
2022/10/27 01:37:40;;;;;;;6.68;4.85;;;12.50;99.90;;;;;;4954310;28;20258;-59
2022/10/27 01:40:30;;;;;;;8.27;4.75;;;12.70;99.90;;;;;;4988054;28;20192;-60
2022/10/27 01:43:01;;;;;;;9.68;5.13;;;12.60;99.90;;;;;;4976802;28;20537;-60
2022/10/27 01:45:33;;;;;;;10.95;5.35;;;12.40;99.90;;;;;;4989893;28;20292;-60
2022/10/27 01:47:59;;;;;;;7.07;5.47;;;12.40;99.90;;;;;;4988404;28;20284;-59
2022/10/27 01:50:29;;;;;;;8.90;5.03;;;12.40;99.90;;;;;;5004630;28;20723;-60
2022/10/27 01:52:55;;;;;;;5.70;4.90;;;12.40;99.90;;;;;;4995616;28;20852;-60
2022/10/27 01:55:30;;;;;;;5.20;4.70;;;12.40;99.90;;;;;;4996190;28;20218;-60
2022/10/27 01:57:55;;;;;;;8.55;6.10;;;12.60;99.90;;;;;;4995393;28;20692;-60
2022/10/27 02:00:21;;;;;;;8.67;5.60;;;12.20;99.90;;;;;;4993792;28;20188;-60
2022/10/27 02:03:00;;;;;;;6.87;5.20;;;12.30;99.90;;;;;;4976111;28;20643;-61
2022/10/27 02:05:50;;;;;;;16.13;5.88;;;12.20;99.90;;;;;;4977124;28;20453;-61
2022/10/27 02:08:30;;;;;;;9.50;5.40;;;12.20;99.90;;;;;;4982303;28;20192;-63
2022/10/27 02:11:07;;;;;;;6.53;5.85;;;12.20;99.90;;;;;;5006306;28;20194;-61
2022/10/27 02:13:36;;;;;;;10.40;5.43;;;11.90;99.90;;;;;;4994815;28;20210;-63
2022/10/27 02:16:07;;;;;;;6.72;5.88;;;12.00;99.90;;;;;;4982796;28;21067;-61
2022/10/27 02:18:37;;;;;;;7.25;5.60;;;12.10;99.90;;;;;;5001604;28;20183;-64
2022/10/27 02:21:07;;;;;;;13.50;5.88;;;12.20;99.90;;;;;;5007362;28;20183;-62
2022/10/27 02:23:34;;;;;;;9.48;5.50;;;12.00;99.90;;;;;;4985636;28;20184;-61
2022/10/27 02:26:22;;;;;;;9.15;6.05;;;12.10;99.90;;;;;;4991139;28;20224;-62
2022/10/27 02:29:11;;;;;;;6.72;5.53;;;12.10;99.90;;;;;;5011834;28;20648;-61
2022/10/27 02:31:42;;;;;;;11.65;5.47;;;12.10;99.90;;;;;;4991956;28;20324;-61
2022/10/27 02:34:09;;;;;;;9.27;5.55;;;12.10;99.90;;;;;;4991658;28;20241;-61
2022/10/27 02:36:35;;;;;;;8.50;5.53;;;12.10;99.90;;;;;;4996308;28;20646;-61
2022/10/27 02:39:00;;;;;;;10.20;5.63;;;12.10;99.90;;;;;;4985203;28;20289;-62
2022/10/27 02:41:26;;;;;;;8.00;5.87;;;11.80;99.90;;;;;;4993123;28;20429;-62
2022/10/27 02:43:51;;;;;;;10.33;6.10;;;12.10;99.90;;;;;;4993434;28;20246;-60
2022/10/27 02:46:17;;;;;;;10.60;6.07;;;12.10;99.90;;;;;;4993360;28;20187;-59
2022/10/27 02:48:42;;;;;;;11.87;6.40;;;12.10;99.90;;;;;;4992435;28;20678;-59
2022/10/27 02:51:08;;;;;;;8.40;6.00;;;11.90;99.90;;;;;;4993696;28;20230;-60
2022/10/27 02:53:34;;;;;;;9.60;6.27;;;11.90;99.90;;;;;;4991595;28;20191;-60
2022/10/27 02:55:59;;;;;;;10.30;6.60;;;12.10;99.90;;;;;;4988639;28;20218;-58
2022/10/27 02:58:25;;;;;;;10.93;6.07;;;12.10;99.90;;;;;;4992857;28;20195;-59
2022/10/27 03:00:55;;;;;;;6.67;5.80;;;12.10;99.90;;;;;;4990929;28;20675;-59
2022/10/27 03:03:21;;;;;;;6.68;6.05;;;12.00;99.90;;;;;;4992856;28;20199;-60
2022/10/27 03:05:47;;;;;;;12.57;6.75;;;12.00;99.90;;;;;;4992799;28;20207;-59
2022/10/27 03:08:14;;;;;;;9.03;6.60;;;12.10;99.90;;;;;;4982604;28;20257;-59
2022/10/27 03:10:39;;;;;;;9.00;6.70;;;12.30;99.90;;;;;;4991690;28;20525;-60
2022/10/27 03:13:05;;;;;;;12.90;6.03;;;12.30;99.90;;;;;;4992467;28;20297;-59
2022/10/27 03:15:30;;;;;;;8.60;6.40;;;12.00;99.90;;;;;;4992679;28;20211;-59
2022/10/27 03:17:56;;;;;;;7.67;6.20;;;11.90;99.90;;;;;;4987428;28;20201;-59
2022/10/27 03:20:22;;;;;;;11.40;6.93;;;12.10;99.90;;;;;;4991396;28;20191;-59
2022/10/27 03:22:47;;;;;;;10.63;6.60;;;12.20;99.90;;;;;;4990326;28;20195;-60
2022/10/27 03:25:14;;;;;;;11.90;6.53;;;12.10;99.90;;;;;;4991488;28;20208;-60
2022/10/27 03:27:42;;;;;;;10.90;6.63;;;12.30;99.90;;;;;;4992748;28;20726;-58
2022/10/27 03:30:11;;;;;;;8.98;6.60;;;12.30;99.90;;;;;;4992742;28;20339;-59
2022/10/27 03:32:37;;;;;;;7.35;6.53;;;12.30;99.90;;;;;;4986647;28;20194;-59
2022/10/27 03:35:03;;;;;;;8.40;5.80;;;12.30;99.90;;;;;;4989521;28;20202;-59
2022/10/27 03:37:29;;;;;;;9.70;6.32;;;12.30;99.90;;;;;;4987914;28;20578;-59
2022/10/27 03:39:55;;;;;;;8.07;5.90;;;12.20;99.90;;;;;;4990910;28;20194;-60
2022/10/27 03:42:20;;;;;;;7.93;5.73;;;12.50;99.90;;;;;;4992338;28;20187;-59
2022/10/27 03:44:46;;;;;;;9.83;6.53;;;12.20;99.90;;;;;;4992381;28;20196;-60
2022/10/27 03:47:12;;;;;;;11.63;6.40;;;12.20;99.90;;;;;;4987927;28;20199;-59
2022/10/27 03:49:37;;;;;;;8.67;5.63;;;12.00;99.90;;;;;;4990766;28;20226;-58
2022/10/27 03:52:03;;;;;;;7.43;5.97;;;12.10;99.90;;;;;;4991597;28;20654;-60
2022/10/27 03:54:30;;;;;;;8.13;7.33;;;12.30;99.90;;;;;;4985330;28;20242;-59
2022/10/27 03:56:55;;;;;;;12.07;10.45;;;12.40;99.90;;;;;;4992129;28;20469;-59
2022/10/27 03:59:21;;;;;;;12.30;7.17;;;12.20;99.90;;;;;;4992231;28;20192;-59
2022/10/27 04:01:47;;;;;;;11.47;7.67;;;12.30;99.90;;;;;;4987138;28;20641;-58
2022/10/27 04:04:13;;;;;;;18.87;7.40;;;12.40;99.90;;;;;;4991128;28;20992;-57
2022/10/27 04:06:38;;;;;;;7.70;5.97;;;12.30;99.90;;;;;;4992275;28;20446;-58
2022/10/27 04:09:04;;;;;;;9.63;6.23;;;12.00;99.90;;;;;;4986225;28;20175;-60
2022/10/27 04:11:30;;;;;;;7.83;6.47;;;12.20;99.90;;;;;;4988612;28;20194;-57
2022/10/27 04:13:55;;;;;;;7.27;6.57;;;12.30;99.90;;;;;;4985700;28;20787;-57
2022/10/27 04:16:21;;;;;;;10.27;6.63;;;12.50;99.90;;;;;;4990361;28;20218;-60
2022/10/27 04:18:47;;;;;;;10.07;6.30;;;12.20;99.90;;;;;;4990567;28;20190;-58
2022/10/27 04:21:14;;;;;;;8.45;5.85;;;12.40;99.90;;;;;;4993536;28;20229;-58
2022/10/27 04:23:40;;;;;;;12.55;6.65;;;12.20;99.90;;;;;;4992535;28;20191;-61
2022/10/27 04:26:05;;;;;;;9.32;7.60;;;12.10;99.90;;;;;;4989957;28;20190;-60
2022/10/27 04:28:31;;;;;;;8.63;6.20;;;12.10;99.90;;;;;;4988528;28;20246;-60
2022/10/27 04:30:57;;;;;;;9.83;7.10;;;12.00;99.90;;;;;;4987012;28;20450;-60
2022/10/27 04:33:23;;;;;;;10.77;7.67;;;12.10;99.90;;;;;;4986634;28;21235;-60
2022/10/27 04:35:48;;;;;;;12.57;7.33;;;12.20;99.90;;;;;;4989654;28;20206;-60
2022/10/27 04:38:14;;;;;;;9.80;7.27;;;12.00;99.90;;;;;;4985400;28;20462;-61
2022/10/27 04:40:40;;;;;;;7.83;6.10;;;12.30;99.90;;;;;;4986275;28;20610;-61
2022/10/27 04:43:06;;;;;;;10.23;7.63;;;12.30;99.90;;;;;;4990852;28;20266;-61
2022/10/27 04:45:32;;;;;;;8.23;6.60;;;12.30;99.90;;;;;;4989697;28;20694;-61
2022/10/27 04:47:58;;;;;;;9.48;6.90;;;12.00;99.90;;;;;;4978806;28;20449;-59
2022/10/27 04:50:24;;;;;;;10.87;7.37;;;12.00;99.90;;;;;;4990718;28;20541;-59
2022/10/27 04:52:58;;;;;;;9.70;6.45;;;12.10;99.90;;;;;;4986659;28;20442;-58
2022/10/27 04:55:25;;;;;;;11.43;6.53;;;12.30;99.90;;;;;;4989971;28;20239;-57
2022/10/27 04:57:51;;;;;;;8.43;6.40;;;12.30;99.90;;;;;;4987977;28;20233;-60
2022/10/27 05:00:17;;;;;;;14.07;7.27;;;12.00;99.90;;;;;;4987202;28;20645;-59
2022/10/27 05:02:43;;;;;;;9.77;7.13;;;11.90;99.90;;;;;;4986351;28;20453;-61
2022/10/27 05:05:09;;;;;;;7.47;6.28;;;11.80;99.90;;;;;;4984717;28;20202;-60
2022/10/27 05:07:35;;;;;;;9.15;7.10;;;11.90;99.90;;;;;;4982314;28;20271;-60
2022/10/27 05:10:01;;;;;;;10.40;6.90;;;12.00;99.90;;;;;;4990138;28;20281;-59
2022/10/27 05:12:32;;;;;;;8.33;6.73;;;12.10;99.90;;;;;;4986904;28;20472;-59
2022/10/27 05:14:58;;;;;;;9.57;7.32;;;11.90;99.90;;;;;;4973510;28;20277;-60
2022/10/27 05:17:24;;;;;;;8.80;6.70;;;12.00;99.90;;;;;;4991315;28;20742;-59
2022/10/27 05:19:50;;;;;;;10.53;6.43;;;12.20;99.90;;;;;;5008140;28;20225;-59
2022/10/27 05:22:15;;;;;;;7.13;6.40;;;12.20;99.90;;;;;;4986728;28;20641;-59
2022/10/27 05:24:41;;;;;;;9.77;7.03;;;12.00;99.90;;;;;;4982518;28;20235;-58
2022/10/27 05:27:06;;;;;;;11.97;7.23;;;12.30;99.90;;;;;;4994898;28;20208;-59
2022/10/27 05:29:32;;;;;;;8.67;6.80;;;12.00;99.90;;;;;;5008732;28;20187;-59
2022/10/27 05:31:58;;;;;;;10.30;6.23;;;12.10;99.90;;;;;;4994766;28;20196;-59
2022/10/27 05:34:23;;;;;;;7.70;6.37;;;11.90;99.90;;;;;;4997624;28;20233;-60
2022/10/27 05:36:50;;;;;;;9.93;6.50;;;12.10;99.90;;;;;;4975445;28;20214;-59
2022/10/27 05:39:15;;;;;;;8.40;6.68;;;11.90;99.90;;;;;;4984139;28;20289;-59
2022/10/27 05:41:41;;;;;;;8.50;6.40;;;12.30;99.90;;;;;;4987906;28;20225;-60
2022/10/27 05:44:07;;;;;;;10.53;6.43;;;12.00;99.90;;;;;;4987147;28;20216;-60
2022/10/27 05:46:32;;;;;;;9.13;6.77;;;12.10;99.90;;;;;;4988983;28;20196;-61
2022/10/27 05:48:58;;;;;;;7.87;7.07;;;12.10;99.90;;;;;;4987993;28;20194;-61
2022/10/27 05:51:23;;;;;;;9.73;6.77;;;12.20;99.90;;;;;;4989456;28;20193;-59
2022/10/27 05:53:50;;;;;;;10.57;6.60;;;11.90;99.90;;;;;;4984959;28;20216;-60
2022/10/27 05:56:16;;;;;;;9.48;7.65;;;11.90;99.90;;;;;;4994002;28;20637;-61
2022/10/27 05:58:42;;;;;;;12.50;7.47;;;12.40;99.90;;;;;;4989330;28;20205;-59
2022/10/27 06:01:08;;;;;;;17.00;7.63;;;12.10;99.90;;;;;;4983615;28;20282;-61
2022/10/27 06:03:33;;;;;;;9.83;6.60;;;11.80;99.90;;;;;;4989531;28;20183;-61
2022/10/27 06:06:02;;;;;;;12.00;6.47;;;11.80;99.90;;;;;;4990597;28;20282;-61
2022/10/27 06:08:28;;;;;;;11.10;8.00;;;12.10;99.90;;;;;;4982568;28;20195;-61
2022/10/27 06:10:55;;;;;;;10.07;6.60;;;12.20;99.90;;;;;;4989660;28;20244;-61
2022/10/27 06:13:21;;;;;;;9.30;7.55;;;12.10;99.90;;;;;;4989379;28;20506;-59
2022/10/27 06:15:47;;;;;;;8.17;6.53;;;12.20;99.90;;;;;;4989794;28;20208;-60
2022/10/27 06:18:13;;;;;;;9.70;6.70;;;12.20;99.90;;;;;;4979742;28;20427;-60
2022/10/27 06:20:39;;;;;;;8.63;7.75;;;12.20;99.90;;;;;;4989830;28;20541;-61
2022/10/27 06:23:05;;;;;;;10.30;8.35;;;12.20;99.90;;;;;;4982464;28;20187;-59
2022/10/27 06:25:30;;;;;;;8.90;7.43;;;12.20;99.90;;;;;;4995263;28;20229;-61
2022/10/27 06:27:56;;;;;;;11.67;7.10;;;12.10;99.90;;;;;;5001078;28;20209;-59
2022/10/27 06:30:22;;;;;;;8.50;7.10;;;12.30;99.90;;;;;;4993416;28;20191;-61
2022/10/27 06:32:48;;;;;;;13.80;8.47;;;12.20;99.90;;;;;;4990380;28;20532;-61
2022/10/27 06:35:13;;;;;;;11.43;7.60;;;12.30;99.90;;;;;;4992092;28;20284;-61
2022/10/27 06:37:42;;;;;;;12.80;7.73;;;12.30;99.90;;;;;;4987837;28;20207;-61
2022/10/27 06:40:08;;;;;;;11.15;8.20;;;12.20;99.90;;;;;;4998424;28;20528;-61
2022/10/27 06:42:40;;;;;;;11.20;7.97;;;12.40;99.90;;;;;;4996802;28;20195;-61
2022/10/27 06:45:07;;;;;;;9.65;8.23;;;12.40;99.90;;;;;;4990651;28;20202;-61
2022/10/27 06:47:32;;;;;;;10.05;8.38;;;12.20;99.90;;;;;;5001328;28;20609;-61
2022/10/27 06:49:58;;;;;;;11.03;8.90;;;12.70;99.90;;;;;;4990633;28;20194;-61
2022/10/27 06:52:25;;;;;;;11.95;9.68;;;12.70;99.90;;;;;;5003426;28;20449;-62
2022/10/27 06:54:51;;;;;;;9.77;7.90;;;12.40;99.90;;;;;;5012561;28;20210;-59
2022/10/27 06:57:17;;;;;;;13.80;8.70;;;12.70;99.90;;;;;;4995833;28;20798;-61
2022/10/27 06:59:42;;;;;;;13.85;8.85;;;12.70;99.90;;;;;;5011401;28;20721;-60
2022/10/27 07:02:13;;;;;;;11.20;7.33;;;12.40;99.90;;;;;;5001233;28;20183;-60
2022/10/27 07:04:39;;;;;;;12.75;8.35;;;12.40;99.90;;;;;;5012117;28;20379;-60
2022/10/27 07:07:04;;;;;;;8.53;7.73;;;12.40;99.90;;;;;;5010760;28;20270;-62
2022/10/27 07:09:30;;;;;;;10.30;8.00;;;12.60;99.90;;;;;;4986293;28;20435;-60
2022/10/27 07:11:55;;;;;;;10.13;9.00;;;12.50;99.90;;;;;;5008039;28;20179;-60
2022/10/27 07:14:21;;;;;;;8.70;7.80;;;12.40;99.90;;;;;;4995944;28;20217;-61
2022/10/27 07:16:46;;;;;;;10.30;8.20;;;12.60;99.90;;;;;;4987290;28;20218;-61
2022/10/27 07:19:12;;;;;;;11.67;8.53;;;12.80;99.90;;;;;;4992527;28;20190;-61
2022/10/27 07:21:38;;;;;;;9.63;7.90;;;12.80;99.90;;;;;;4974991;28;20195;-61
2022/10/27 07:24:03;;;;;;;9.97;7.83;;;12.80;99.90;;;;;;4984469;28;20284;-59
2022/10/27 07:26:29;;;;;;;31.33;9.53;;;12.90;99.90;;;;;;4992196;28;20199;-60
2022/10/27 07:28:55;;;;;;;11.50;10.10;;;12.90;99.90;;;;;;4991680;28;21005;-60
2022/10/27 07:31:20;;;;;;;12.20;8.33;;;13.10;99.90;;;;;;4981755;28;20196;-61
2022/10/27 07:33:46;;;;;;;12.37;8.60;;;13.00;99.90;;;;;;4992421;28;20273;-60
2022/10/27 07:36:11;;;;;;;9.47;7.43;;;13.40;99.90;;;;;;4974446;28;20218;-60
2022/10/27 07:38:38;;;;;;;10.23;8.37;;;13.20;99.90;;;;;;4987582;28;20714;-60
2022/10/27 07:41:04;;;;;;;12.05;7.63;;;13.30;99.90;;;;;;4990641;28;20661;-60
2022/10/27 07:43:29;;;;;;;8.93;8.00;;;13.70;99.90;;;;;;4995154;28;20242;-60
2022/10/27 07:45:55;;;;;;;13.30;9.07;;;13.80;99.90;;;;;;4990257;28;21009;-60
2022/10/27 07:48:21;;;;;;;12.23;8.27;;;13.60;99.90;;;;;;4986046;28;20735;-60
2022/10/27 07:50:46;;;;;;;9.17;7.70;;;13.60;99.90;;;;;;4991583;28;20250;-61
2022/10/27 07:53:16;;;;;;;9.57;7.73;;;13.80;99.90;;;;;;4990611;28;20190;-61
2022/10/27 07:55:42;;;;;;;8.70;7.80;;;14.10;99.90;;;;;;4992696;28;20207;-60
2022/10/27 07:58:15;;;;;;;11.47;8.77;;;14.20;99.90;;;;;;4991498;28;20514;-61
2022/10/27 08:00:44;;;;;;;16.73;9.57;;;14.00;99.90;;;;;;4991267;28;20194;-61
2022/10/27 08:03:16;;;;;;;10.35;9.18;;;14.00;99.90;;;;;;4984863;28;20200;-61
2022/10/27 08:05:41;;;;;;;13.57;8.60;;;14.50;99.90;;;;;;4990300;28;20211;-61
2022/10/27 08:08:07;;;;;;;14.13;7.90;;;14.30;99.90;;;;;;4983802;28;20773;-62
2022/10/27 08:10:36;;;;;;;10.10;7.80;;;14.50;99.90;;;;;;4991139;28;20183;-62
2022/10/27 08:13:02;;;;;;;11.60;9.20;;;14.70;99.90;;;;;;4990944;28;20203;-62
2022/10/27 08:15:28;;;;;;;11.70;8.50;;;14.60;99.90;;;;;;4991545;28;20564;-60
2022/10/27 08:17:58;;;;;;;10.52;8.40;;;14.70;99.90;;;;;;4982515;28;20212;-60
2022/10/27 08:20:24;;;;;;;13.07;8.95;;;14.70;99.90;;;;;;4973295;28;20524;-59
2022/10/27 08:22:57;;;;;;;11.00;8.35;;;14.90;99.90;;;;;;4982952;28;20185;-59
2022/10/27 08:25:23;;;;;;;10.68;8.15;;;14.60;99.90;;;;;;4995817;28;20203;-60
2022/10/27 08:27:49;;;;;;;9.40;8.50;;;14.90;99.90;;;;;;5001801;28;20519;-62
2022/10/27 08:30:15;;;;;;;9.70;8.70;;;15.00;99.90;;;;;;4990931;28;20187;-60
2022/10/27 08:32:40;;;;;;;10.30;8.17;;;15.10;99.90;;;;;;4983771;28;20349;-61
2022/10/27 08:35:06;;;;;;;10.30;8.17;;;15.10;99.90;;;;;;4990901;28;20207;-60
2022/10/27 08:37:32;;;;;;;11.05;9.45;;;15.10;99.90;;;;;;4991190;28;20207;-61
2022/10/27 08:39:58;;;;;;;19.90;11.47;;;15.30;99.90;;;;;;4991121;28;20571;-62
2022/10/27 08:42:50;;;;;;;11.53;10.33;;;15.50;99.90;;;;;;4989802;28;20180;-60
2022/10/27 08:45:27;;;;;;;15.57;10.23;;;15.30;99.90;;;;;;4984555;28;20238;-61
2022/10/27 08:47:55;;;;;;;10.35;8.20;;;15.80;99.90;;;;;;4990810;28;20214;-61
2022/10/27 08:50:23;;;;;;;11.52;7.97;;;15.70;99.90;;;;;;4990198;28;20201;-60
2022/10/27 08:52:57;;;;;;;11.63;8.63;;;15.70;99.90;;;;;;4989335;28;20590;-60
2022/10/27 08:55:34;;;;;;;11.60;8.52;;;16.00;99.90;;;;;;4993709;28;20211;-60
2022/10/27 08:58:02;;;;;;;10.88;8.02;;;15.90;99.90;;;;;;4977602;28;20309;-61
2022/10/27 09:00:45;;;;;;;12.02;9.48;;;16.30;99.90;;;;;;4990581;28;20184;-60
2022/10/27 09:03:48;;;;;;;12.30;7.75;;;16.50;99.90;;;;;;4988321;28;20522;-60
2022/10/27 09:06:29;;;;;;;9.48;7.15;;;16.80;99.90;;;;;;4978776;28;20191;-63
2022/10/27 09:09:07;;;;;;;13.13;7.90;;;17.60;99.90;;;;;;4983772;28;20244;-63
2022/10/27 09:11:51;;;;;;;9.93;8.50;;;18.40;99.90;;;;;;4990936;28;20269;-62
2022/10/27 09:14:19;;;;;;;10.88;7.28;;;18.60;99.90;;;;;;4990292;28;20304;-61
2022/10/27 09:17:16;;;;;;;11.13;7.20;;;18.50;99.90;;;;;;4982328;28;20219;-60
2022/10/27 09:19:52;;;;;;;10.98;6.57;;;18.40;99.90;;;;;;4990309;28;20234;-61
2022/10/27 09:22:20;;;;;;;7.88;6.10;;;18.30;99.90;;;;;;4987944;28;20234;-61
2022/10/27 09:25:12;;;;;;;9.48;6.75;;;18.30;99.90;;;;;;4985865;28;20688;-62
2022/10/27 09:27:39;;;;;;;14.70;8.40;;;18.40;99.90;;;;;;4972875;28;20552;-62
2022/10/27 09:30:06;;;;;;;8.10;6.55;;;18.50;99.90;;;;;;4987859;28;20250;-62
2022/10/27 09:32:34;;;;;;;12.02;7.70;;;18.60;99.90;;;;;;4983176;28;20215;-62
2022/10/27 09:35:10;;;;;;;13.60;7.65;;;18.70;99.90;;;;;;4989971;28;20211;-62
2022/10/27 09:37:39;;;;;;;11.77;7.55;;;19.30;99.90;;;;;;4991608;28;20255;-62
2022/10/27 09:40:14;;;;;;;10.30;7.03;;;19.00;99.90;;;;;;4983031;28;20180;-62
2022/10/27 09:42:40;;;;;;;8.73;6.90;;;19.10;99.90;;;;;;4986183;28;20181;-60
2022/10/27 09:45:26;;;;;;;7.93;6.30;;;19.10;99.90;;;;;;4988672;28;20196;-61
2022/10/27 09:47:56;;;;;;;8.30;6.03;;;19.40;99.90;;;;;;4977944;28;20207;-60
2022/10/27 09:50:37;;;;;;;12.43;6.57;;;19.10;99.90;;;;;;4990250;28;20282;-60
2022/10/27 09:53:03;;;;;;;8.93;6.20;;;19.10;99.90;;;;;;4988809;28;20224;-60
2022/10/27 09:55:51;;;;;;;7.75;5.88;;;19.00;99.90;;;;;;4991870;28;20234;-60
2022/10/27 09:58:18;;;;;;;6.95;5.10;;;19.00;99.90;;;;;;4972082;28;20188;-60
2022/10/27 10:00:44;;;;;;;11.43;6.68;;;19.20;99.90;;;;;;4989865;28;20199;-62
2022/10/27 10:03:20;;;;;;;9.98;6.90;;;19.10;99.90;;;;;;4992037;28;20214;-63
2022/10/27 10:05:56;;;;;;;9.20;6.28;;;19.20;99.90;;;;;;4992174;28;20207;-60
2022/10/27 10:08:24;;;;;;;9.30;7.20;;;19.40;99.90;;;;;;4989588;28;20230;-63
2022/10/27 10:10:57;;;;;;;10.85;5.43;;;19.70;99.90;;;;;;5001128;28;20241;-61
2022/10/27 10:13:25;;;;;;;6.93;5.28;;;19.90;99.90;;;;;;4985149;28;20189;-60
2022/10/27 10:16:09;;;;;;;7.07;6.38;;;20.30;99.90;;;;;;5013251;28;20687;-60
2022/10/27 10:18:35;;;;;;;7.65;5.20;;;20.90;99.90;;;;;;4995191;28;20283;-61
2022/10/27 10:21:03;;;;;;;8.02;4.85;;;21.00;99.90;;;;;;4994509;28;20240;-61
2022/10/27 10:23:32;;;;;;;6.73;4.63;;;21.40;99.70;;;;;;4996838;28;20273;-61
2022/10/27 10:26:00;;;;;;;10.15;4.70;;;22.10;98.70;;;;;;4997927;28;20458;-61
2022/10/27 10:28:36;;;;;;;8.37;4.60;;;22.40;97.20;;;;;;5001093;28;20206;-60
2022/10/27 10:31:15;;;;;;;5.30;4.80;;;22.60;96.60;;;;;;4993815;28;20464;-62
2022/10/27 10:33:45;;;;;;;6.90;4.53;;;22.80;96.00;;;;;;4994572;28;20552;-60
2022/10/27 10:36:27;;;;;;;7.80;4.10;;;23.10;95.60;;;;;;5007179;28;20674;-61
2022/10/27 10:38:56;;;;;;;7.17;5.23;;;23.80;94.90;;;;;;4996008;28;20457;-63
2022/10/27 10:41:22;;;;;;;6.77;3.67;;;24.90;93.60;;;;;;5012388;28;20759;-62
2022/10/27 10:44:10;;;;;;;7.87;5.00;;;25.30;91.30;;;;;;5012281;28;20432;-62
2022/10/27 10:46:40;;;;;;;6.50;4.80;;;26.50;90.50;;;;;;5003259;28;20982;-62
2022/10/27 10:49:21;;;;;;;5.63;4.83;;;27.80;86.90;;;;;;4999357;28;20430;-62
2022/10/27 10:52:00;;;;;;;7.90;4.87;;;28.60;83.10;;;;;;5011545;28;20434;-62
2022/10/27 10:54:34;;;;;;;8.00;4.47;;;28.90;81.30;;;;;;4980772;28;20995;-62
2022/10/27 10:57:01;;;;;;;6.20;3.20;;;28.50;80.50;;;;;;5011654;28;20471;-62
2022/10/27 10:59:29;;;;;;;4.07;3.07;;;27.80;78.80;;;;;;5005139;28;20438;-62
2022/10/27 11:01:54;;;;;;;8.20;3.93;;;27.10;80.70;;;;;;5000022;28;20970;-62
2022/10/27 11:04:29;;;;;;;7.90;4.00;;;26.40;82.60;;;;;;5011758;28;20502;-61
2022/10/27 11:07:14;;;;;;;6.00;3.83;;;26.20;84.20;;;;;;5008900;28;20197;-62
2022/10/27 11:10:17;;;;;;;7.83;2.80;;;25.90;84.60;;;;;;4987645;28;20528;-62
2022/10/27 11:13:10;;;;;;;4.97;2.90;;;26.40;82.80;;;;;;4980923;28;20453;-62
2022/10/27 11:15:46;;;;;;;4.13;3.10;;;27.10;81.10;;;;;;4973769;28;20494;-62
2022/10/27 11:18:33;;;;;;;6.57;2.70;;;27.40;77.70;;;;;;5000217;28;20431;-63
2022/10/27 11:21:11;;;;;;;5.33;2.90;;;27.60;78.00;;;;;;5002611;28;20438;-60
2022/10/27 11:23:55;;;;;;;4.60;3.10;;;27.10;79.00;;;;;;4999602;28;20438;-61
2022/10/27 11:26:39;;;;;;;6.77;3.10;;;26.50;80.90;;;;;;5007171;28;20445;-62
2022/10/27 11:29:18;;;;;;;4.87;2.90;;;26.20;82.10;;;;;;5010932;28;20455;-61
2022/10/27 11:32:08;;;;;;;3.90;2.83;;;26.00;82.20;;;;;;4985267;28;20445;-61
2022/10/27 11:34:37;;;;;;;6.03;3.30;;;25.50;83.30;;;;;;4985948;28;20458;-61
2022/10/27 11:37:30;;;;;;;5.43;3.23;;;25.40;83.80;;;;;;4974072;28;20630;-62
2022/10/27 11:40:21;;;;;;;4.70;2.67;;;25.10;84.40;;;;;;4991828;28;20449;-60
2022/10/27 11:42:58;;;;;;;7.63;3.23;;;24.90;84.90;;;;;;4991595;28;20439;-61
2022/10/27 11:45:36;;;;;;;8.10;2.90;;;24.70;86.90;;;;;;4992510;28;20443;-60
2022/10/27 11:48:06;;;;;;;5.33;2.80;;;24.50;85.30;;;;;;4981906;28;21025;-60
2022/10/27 11:50:37;;;;;;;3.63;2.93;;;24.40;85.90;;;;;;4991919;28;20435;-60
2022/10/27 11:53:03;;;;;;;8.57;3.60;;;23.90;86.30;;;;;;4990780;28;20450;-61
2022/10/27 11:55:59;;;;;;;2.60;2.13;;;24.10;87.70;;;;;;4993271;28;20867;-59
2022/10/27 11:58:45;;;;;;;3.87;2.70;;;24.00;88.70;;;;;;4991018;28;20192;-59
2022/10/27 12:01:31;;;;;;;3.87;2.37;;;23.90;89.30;;;;;;4990256;28;20441;-61
2022/10/27 12:04:19;;;;;;;9.43;3.10;;;23.80;90.10;;;;;;4987764;28;20541;-60
2022/10/27 12:06:48;;;;;;;4.23;2.50;;;23.60;91.00;;;;;;4991203;28;20789;-61
2022/10/27 12:09:52;;;;;;;6.40;2.60;;;23.50;90.40;;;;;;4966946;28;20477;-60
2022/10/27 12:12:39;;;;;;;6.27;2.97;;;23.60;90.00;;;;;;4991458;28;20441;-60
2022/10/27 12:15:25;;;;;;;10.83;3.07;;;23.60;90.60;;;;;;4991303;28;20541;-60
2022/10/27 12:18:07;;;;;;;7.57;3.33;;;23.60;90.40;;;;;;4985217;28;20833;-60
2022/10/27 12:20:35;;;;;;;4.90;2.63;;;23.70;90.30;;;;;;4991581;28;20551;-61
2022/10/27 12:23:07;;;;;;;8.23;2.83;;;23.60;90.70;;;;;;4992957;28;20433;-60
2022/10/27 12:25:50;;;;;;;3.80;3.00;;;23.70;91.30;;;;;;4978670;28;20541;-60
2022/10/27 12:28:17;;;;;;;6.17;3.10;;;23.70;90.90;;;;;;4998512;28;20835;-60
2022/10/27 12:30:46;;;;;;;4.90;3.07;;;23.70;90.40;;;;;;4991100;28;21029;-61
2022/10/27 12:33:24;;;;;;;6.10;2.60;;;23.70;90.20;;;;;;4981397;28;20445;-60
2022/10/27 12:36:17;;;;;;;6.70;2.97;;;23.80;89.90;;;;;;4974051;28;20791;-60
2022/10/27 12:39:08;;;;;;;3.10;2.27;;;23.90;89.70;;;;;;4986888;28;20447;-61
2022/10/27 12:41:43;;;;;;;7.10;2.90;;;24.00;88.20;;;;;;4945278;28;20504;-61
2022/10/27 12:44:35;;;;;;;3.43;2.30;;;24.10;89.20;;;;;;4990449;28;20449;-61
2022/10/27 12:47:52;;;;;;;5.57;2.60;;;24.10;88.30;;;;;;4979223;28;20444;-60
2022/10/27 12:50:39;;;;;;;4.73;2.80;;;24.10;88.70;;;;;;4940177;28;20465;-59
2022/10/27 12:53:34;;;;;;;4.20;2.90;;;24.10;88.70;;;;;;4988999;28;20474;-62
2022/10/27 12:56:25;;;;;;;7.73;2.40;;;24.00;89.70;;;;;;4992310;28;20862;-61
2022/10/27 12:59:09;;;;;;;5.73;3.33;;;23.90;90.00;;;;;;4990294;28;20435;-60
2022/10/27 13:01:45;;;;;;;3.60;2.70;;;23.90;90.80;;;;;;4979711;28;20895;-61
2022/10/27 13:04:23;;;;;;;8.10;3.97;;;24.00;90.10;;;;;;4989806;28;20454;-60